sensor_id;sensor_type;location;lat;lon;timestamp;temperature;humidity
39345;DHT22;25061;51.954;6.996;2023-11-22T05:31:26;1.20;99.90
39345;DHT22;25061;51.954;6.996;2023-11-22T05:33:51;1.20;99.90
39345;DHT22;25061;51.954;6.996;2023-11-22T05:36:17;1.20;99.90
39345;DHT22;25061;51.954;6.996;2023-11-22T05:38:43;1.20;99.90
39345;DHT22;25061;51.954;6.996;2023-11-22T05:41:08;1.20;99.90
39345;DHT22;25061;51.954;6.996;2023-11-22T05:43:34;1.10;99.90
39345;DHT22;25061;51.954;6.996;2023-11-22T05:46:03;1.10;99.90
39345;DHT22;25061;51.954;6.996;2023-11-22T05:48:29;1.10;99.90
39345;DHT22;25061;51.954;6.996;2023-11-22T05:50:54;1.10;99.90
39345;DHT22;25061;51.954;6.996;2023-11-22T05:53:20;1.00;99.90
39345;DHT22;25061;51.954;6.996;2023-11-22T05:55:49;1.00;99.90
39345;DHT22;25061;51.954;6.996;2023-11-22T05:58:19;0.90;99.90
39345;DHT22;25061;51.954;6.996;2023-11-22T06:00:47;0.90;99.90
39345;DHT22;25061;51.954;6.996;2023-11-22T06:03:13;0.80;99.90
39345;DHT22;25061;51.954;6.996;2023-11-22T06:05:39;0.90;99.90
39345;DHT22;25061;51.954;6.996;2023-11-22T06:08:06;0.80;99.90
39345;DHT22;25061;51.954;6.996;2023-11-22T06:10:32;0.80;99.90
39345;DHT22;25061;51.954;6.996;2023-11-22T06:12:59;0.80;99.90
39345;DHT22;25061;51.954;6.996;2023-11-22T06:15:25;0.80;99.90
39345;DHT22;25061;51.954;6.996;2023-11-22T06:17:50;0.70;99.90
39345;DHT22;25061;51.954;6.996;2023-11-22T06:20:16;0.70;99.90
39345;DHT22;25061;51.954;6.996;2023-11-22T06:22:42;0.60;99.90
39345;DHT22;25061;51.954;6.996;2023-11-22T06:25:14;0.60;99.90
39345;DHT22;25061;51.954;6.996;2023-11-22T06:27:41;0.60;99.90
39345;DHT22;25061;51.954;6.996;2023-11-22T06:30:08;0.60;99.90
39345;DHT22;25061;51.954;6.996;2023-11-22T06:32:36;0.70;99.90
39345;DHT22;25061;51.954;6.996;2023-11-22T06:35:01;0.60;99.90
39345;DHT22;25061;51.954;6.996;2023-11-22T06:37:29;0.40;99.90
39345;DHT22;25061;51.954;6.996;2023-11-22T06:39:55;0.40;99.90
39345;DHT22;25061;51.954;6.996;2023-11-22T06:42:23;0.50;99.90
39345;DHT22;25061;51.954;6.996;2023-11-22T06:44:55;0.50;99.90
39345;DHT22;25061;51.954;6.996;2023-11-22T06:47:26;0.50;99.90
39345;DHT22;25061;51.954;6.996;2023-11-22T06:49:52;0.50;99.90
39345;DHT22;25061;51.954;6.996;2023-11-22T06:52:18;0.50;99.90
39345;DHT22;25061;51.954;6.996;2023-11-22T06:54:44;0.60;99.90
39345;DHT22;25061;51.954;6.996;2023-11-22T06:57:10;0.50;99.90
39345;DHT22;25061;51.954;6.996;2023-11-22T06:59:35;0.50;99.90
39345;DHT22;25061;51.954;6.996;2023-11-22T07:02:01;0.60;99.90
39345;DHT22;25061;51.954;6.996;2023-11-22T07:04:27;0.50;99.90
39345;DHT22;25061;51.954;6.996;2023-11-22T07:06:54;0.60;99.90
39345;DHT22;25061;51.954;6.996;2023-11-22T07:09:20;0.60;99.90
39345;DHT22;25061;51.954;6.996;2023-11-22T07:11:46;0.60;99.90
39345;DHT22;25061;51.954;6.996;2023-11-22T07:14:12;0.60;99.90
39345;DHT22;25061;51.954;6.996;2023-11-22T07:16:39;0.70;99.90
39345;DHT22;25061;51.954;6.996;2023-11-22T07:19:05;0.70;99.90
39345;DHT22;25061;51.954;6.996;2023-11-22T07:21:32;0.60;99.90
39345;DHT22;25061;51.954;6.996;2023-11-22T07:23:59;0.30;99.90
39345;DHT22;25061;51.954;6.996;2023-11-22T07:26:25;0.50;99.90
39345;DHT22;25061;51.954;6.996;2023-11-22T07:28:52;0.60;99.90
39345;DHT22;25061;51.954;6.996;2023-11-22T07:31:18;0.70;99.90
39345;DHT22;25061;51.954;6.996;2023-11-22T07:33:45;0.70;99.90
39345;DHT22;25061;51.954;6.996;2023-11-22T07:36:12;0.80;99.90
39345;DHT22;25061;51.954;6.996;2023-11-22T07:38:40;0.80;99.90
39345;DHT22;25061;51.954;6.996;2023-11-22T07:41:06;1.00;99.90
39345;DHT22;25061;51.954;6.996;2023-11-22T07:43:32;1.70;99.90
39345;DHT22;25061;51.954;6.996;2023-11-22T07:45:58;3.60;99.90
39345;DHT22;25061;51.954;6.996;2023-11-22T07:48:25;4.50;99.90
39345;DHT22;25061;51.954;6.996;2023-11-22T07:50:53;3.90;99.90
39345;DHT22;25061;51.954;6.996;2023-11-22T07:53:20;4.40;99.90
39345;DHT22;25061;51.954;6.996;2023-11-22T07:55:45;5.50;99.90
39345;DHT22;25061;51.954;6.996;2023-11-22T07:58:12;6.20;99.90
39345;DHT22;25061;51.954;6.996;2023-11-22T08:00:41;7.20;99.90
39345;DHT22;25061;51.954;6.996;2023-11-22T08:03:08;8.00;99.90
39345;DHT22;25061;51.954;6.996;2023-11-22T08:05:34;8.00;99.90
39345;DHT22;25061;51.954;6.996;2023-11-22T08:08:03;7.20;99.90
39345;DHT22;25061;51.954;6.996;2023-11-22T08:10:34;7.80;99.90
39345;DHT22;25061;51.954;6.996;2023-11-22T08:13:00;8.60;99.90
39345;DHT22;25061;51.954;6.996;2023-11-22T08:15:26;8.40;99.90
39345;DHT22;25061;51.954;6.996;2023-11-22T08:17:52;7.30;99.90
39345;DHT22;25061;51.954;6.996;2023-11-22T08:20:18;6.80;99.90
39345;DHT22;25061;51.954;6.996;2023-11-22T08:22:44;8.10;99.90
39345;DHT22;25061;51.954;6.996;2023-11-22T08:25:11;9.30;99.90
39345;DHT22;25061;51.954;6.996;2023-11-22T08:27:39;9.20;99.90
39345;DHT22;25061;51.954;6.996;2023-11-22T08:30:06;9.90;99.90
39345;DHT22;25061;51.954;6.996;2023-11-22T08:32:35;9.30;99.90
39345;DHT22;25061;51.954;6.996;2023-11-22T08:35:00;7.80;99.90
39345;DHT22;25061;51.954;6.996;2023-11-22T08:37:33;7.00;99.90
39345;DHT22;25061;51.954;6.996;2023-11-22T08:40:01;6.50;99.90
39345;DHT22;25061;51.954;6.996;2023-11-22T08:42:27;6.60;99.90
39345;DHT22;25061;51.954;6.996;2023-11-22T08:44:55;5.90;99.90
39345;DHT22;25061;51.954;6.996;2023-11-22T08:47:21;5.10;99.90
39345;DHT22;25061;51.954;6.996;2023-11-22T08:49:47;4.50;99.90
39345;DHT22;25061;51.954;6.996;2023-11-22T08:52:13;4.30;99.90
39345;DHT22;25061;51.954;6.996;2023-11-22T08:54:39;4.00;99.90
39345;DHT22;25061;51.954;6.996;2023-11-22T08:57:05;3.70;99.90
39345;DHT22;25061;51.954;6.996;2023-11-22T08:59:31;3.80;99.90
39345;DHT22;25061;51.954;6.996;2023-11-22T09:02:06;3.60;99.90
39345;DHT22;25061;51.954;6.996;2023-11-22T09:04:35;3.60;99.90
39345;DHT22;25061;51.954;6.996;2023-11-22T09:07:01;3.40;99.90
39345;DHT22;25061;51.954;6.996;2023-11-22T09:09:26;3.40;99.90
39345;DHT22;25061;51.954;6.996;2023-11-22T09:11:58;3.50;99.90
39345;DHT22;25061;51.954;6.996;2023-11-22T09:14:24;3.30;99.90
39345;DHT22;25061;51.954;6.996;2023-11-22T09:16:52;3.20;99.90
39345;DHT22;25061;51.954;6.996;2023-11-22T09:19:33;3.00;99.90
39345;DHT22;25061;51.954;6.996;2023-11-22T09:22:08;3.00;99.90
39345;DHT22;25061;51.954;6.996;2023-11-22T09:24:34;3.10;99.90
39345;DHT22;25061;51.954;6.996;2023-11-22T09:27:03;3.10;99.90
39345;DHT22;25061;51.954;6.996;2023-11-22T09:29:31;3.00;99.90
39345;DHT22;25061;51.954;6.996;2023-11-22T09:31:56;3.10;99.90
39345;DHT22;25061;51.954;6.996;2023-11-22T09:34:22;3.10;99.90
39345;DHT22;25061;51.954;6.996;2023-11-22T09:36:48;3.30;99.90
39345;DHT22;25061;51.954;6.996;2023-11-22T09:39:13;3.20;99.90
39345;DHT22;25061;51.954;6.996;2023-11-22T09:41:39;3.30;99.90
39345;DHT22;25061;51.954;6.996;2023-11-22T09:44:19;3.10;99.90
39345;DHT22;25061;51.954;6.996;2023-11-22T09:47:13;3.00;99.90
39345;DHT22;25061;51.954;6.996;2023-11-22T09:49:40;3.30;99.90
39345;DHT22;25061;51.954;6.996;2023-11-22T09:52:08;3.60;99.90
39345;DHT22;25061;51.954;6.996;2023-11-22T09:54:39;3.40;99.90
39345;DHT22;25061;51.954;6.996;2023-11-22T09:57:09;3.40;99.90
39345;DHT22;25061;51.954;6.996;2023-11-22T09:59:36;3.50;99.90
39345;DHT22;25061;51.954;6.996;2023-11-22T10:02:05;3.80;99.90
39345;DHT22;25061;51.954;6.996;2023-11-22T10:04:32;4.00;99.90
39345;DHT22;25061;51.954;6.996;2023-11-22T10:06:59;4.00;99.90
39345;DHT22;25061;51.954;6.996;2023-11-22T10:09:28;3.90;99.90
39345;DHT22;25061;51.954;6.996;2023-11-22T10:12:03;3.80;99.90
39345;DHT22;25061;51.954;6.996;2023-11-22T10:14:33;3.70;99.90
39345;DHT22;25061;51.954;6.996;2023-11-22T10:17:03;3.40;99.90
39345;DHT22;25061;51.954;6.996;2023-11-22T10:19:30;3.40;99.90
39345;DHT22;25061;51.954;6.996;2023-11-22T10:22:02;3.60;99.90
39345;DHT22;25061;51.954;6.996;2023-11-22T10:24:31;3.60;99.90
39345;DHT22;25061;51.954;6.996;2023-11-22T10:26:59;3.60;99.90
39345;DHT22;25061;51.954;6.996;2023-11-22T10:29:25;3.60;99.90
39345;DHT22;25061;51.954;6.996;2023-11-22T10:31:51;3.60;99.90
39345;DHT22;25061;51.954;6.996;2023-11-22T10:34:20;3.90;99.90
39345;DHT22;25061;51.954;6.996;2023-11-22T10:36:46;4.10;99.90
39345;DHT22;25061;51.954;6.996;2023-11-22T10:39:12;4.20;99.90
39345;DHT22;25061;51.954;6.996;2023-11-22T10:41:42;4.10;99.90
39345;DHT22;25061;51.954;6.996;2023-11-22T10:44:09;4.00;99.90
39345;DHT22;25061;51.954;6.996;2023-11-22T10:46:35;4.20;99.90
39345;DHT22;25061;51.954;6.996;2023-11-22T10:49:05;4.30;99.90
39345;DHT22;25061;51.954;6.996;2023-11-22T10:51:32;4.00;99.90
39345;DHT22;25061;51.954;6.996;2023-11-22T10:53:58;3.80;99.90
39345;DHT22;25061;51.954;6.996;2023-11-22T10:56:26;3.70;99.90
39345;DHT22;25061;51.954;6.996;2023-11-22T10:58:57;3.70;99.90
39345;DHT22;25061;51.954;6.996;2023-11-22T11:01:26;3.60;99.90
39345;DHT22;25061;51.954;6.996;2023-11-22T11:04:08;3.70;99.90
39345;DHT22;25061;51.954;6.996;2023-11-22T11:06:36;3.70;99.90
39345;DHT22;25061;51.954;6.996;2023-11-22T11:09:06;3.70;99.90
39345;DHT22;25061;51.954;6.996;2023-11-22T11:11:37;3.80;99.90
39345;DHT22;25061;51.954;6.996;2023-11-22T11:14:07;3.90;99.90
39345;DHT22;25061;51.954;6.996;2023-11-22T11:16:36;3.70;99.90
39345;DHT22;25061;51.954;6.996;2023-11-22T11:19:04;3.90;99.90
39345;DHT22;25061;51.954;6.996;2023-11-22T11:21:32;3.90;99.90
39345;DHT22;25061;51.954;6.996;2023-11-22T11:23:58;3.90;99.90
39345;DHT22;25061;51.954;6.996;2023-11-22T11:26:28;4.10;99.90
39345;DHT22;25061;51.954;6.996;2023-11-22T11:28:54;4.00;99.90
39345;DHT22;25061;51.954;6.996;2023-11-22T11:31:23;4.10;99.90
39345;DHT22;25061;51.954;6.996;2023-11-22T11:36:28;4.00;99.90
39345;DHT22;25061;51.954;6.996;2023-11-22T11:38:59;4.20;99.90
39345;DHT22;25061;51.954;6.996;2023-11-22T11:41:31;4.20;99.90
39345;DHT22;25061;51.954;6.996;2023-11-22T11:44:07;4.10;99.90
39345;DHT22;25061;51.954;6.996;2023-11-22T11:46:34;4.10;99.90
39345;DHT22;25061;51.954;6.996;2023-11-22T11:48:59;4.10;99.90
39345;DHT22;25061;51.954;6.996;2023-11-22T11:51:27;3.90;99.90
39345;DHT22;25061;51.954;6.996;2023-11-22T11:53:56;3.90;99.90
39345;DHT22;25061;51.954;6.996;2023-11-22T11:56:22;3.80;99.90
39345;DHT22;25061;51.954;6.996;2023-11-22T11:58:50;3.90;99.90
39345;DHT22;25061;51.954;6.996;2023-11-22T12:01:16;4.00;99.90
39345;DHT22;25061;51.954;6.996;2023-11-22T12:03:43;4.20;99.90
39345;DHT22;25061;51.954;6.996;2023-11-22T12:06:18;4.50;99.90
39345;DHT22;25061;51.954;6.996;2023-11-22T12:08:45;4.80;99.90
39345;DHT22;25061;51.954;6.996;2023-11-22T12:11:13;4.50;99.90
39345;DHT22;25061;51.954;6.996;2023-11-22T12:13:39;4.50;99.90
39345;DHT22;25061;51.954;6.996;2023-11-22T12:16:08;4.60;99.90
39345;DHT22;25061;51.954;6.996;2023-11-22T12:18:46;4.80;99.90
39345;DHT22;25061;51.954;6.996;2023-11-22T12:21:13;4.80;99.90
39345;DHT22;25061;51.954;6.996;2023-11-22T12:23:43;4.80;99.90
39345;DHT22;25061;51.954;6.996;2023-11-22T12:26:19;4.70;99.90
39345;DHT22;25061;51.954;6.996;2023-11-22T12:28:46;4.80;99.90
39345;DHT22;25061;51.954;6.996;2023-11-22T12:31:15;5.00;99.90
39345;DHT22;25061;51.954;6.996;2023-11-22T12:33:42;5.10;99.90
39345;DHT22;25061;51.954;6.996;2023-11-22T12:36:09;5.00;99.90
39345;DHT22;25061;51.954;6.996;2023-11-22T12:38:36;5.10;99.90
39345;DHT22;25061;51.954;6.996;2023-11-22T12:41:02;5.10;99.90
39345;DHT22;25061;51.954;6.996;2023-11-22T12:43:29;5.00;99.90
39345;DHT22;25061;51.954;6.996;2023-11-22T12:46:06;5.30;99.90
39345;DHT22;25061;51.954;6.996;2023-11-22T12:48:33;5.20;99.90
39345;DHT22;25061;51.954;6.996;2023-11-22T12:50:59;5.20;99.90
39345;DHT22;25061;51.954;6.996;2023-11-22T12:53:26;5.50;99.90
39345;DHT22;25061;51.954;6.996;2023-11-22T12:55:54;5.70;99.90
39345;DHT22;25061;51.954;6.996;2023-11-22T12:58:22;5.50;99.90
39345;DHT22;25061;51.954;6.996;2023-11-22T13:00:54;5.30;99.90
39345;DHT22;25061;51.954;6.996;2023-11-22T13:03:24;5.20;99.90
39345;DHT22;25061;51.954;6.996;2023-11-22T13:05:53;5.40;99.90
39345;DHT22;25061;51.954;6.996;2023-11-22T13:08:19;5.10;91.00
39345;DHT22;25061;51.954;6.996;2023-11-22T13:10:47;5.00;88.40
39345;DHT22;25061;51.954;6.996;2023-11-22T13:13:17;5.00;90.60
39345;DHT22;25061;51.954;6.996;2023-11-22T13:15:43;5.00;92.80
39345;DHT22;25061;51.954;6.996;2023-11-22T13:18:08;4.90;91.00
39345;DHT22;25061;51.954;6.996;2023-11-22T13:20:35;4.90;92.50
39345;DHT22;25061;51.954;6.996;2023-11-22T13:23:06;5.00;91.70
39345;DHT22;25061;51.954;6.996;2023-11-22T13:25:32;5.10;93.90
39345;DHT22;25061;51.954;6.996;2023-11-22T13:27:58;5.10;95.60
39345;DHT22;25061;51.954;6.996;2023-11-22T13:30:24;5.30;95.10
39345;DHT22;25061;51.954;6.996;2023-11-22T13:32:54;5.20;94.60
39345;DHT22;25061;51.954;6.996;2023-11-22T13:35:22;5.30;95.90
39345;DHT22;25061;51.954;6.996;2023-11-22T13:37:48;5.30;97.10
39345;DHT22;25061;51.954;6.996;2023-11-22T13:40:16;5.40;96.50
39345;DHT22;25061;51.954;6.996;2023-11-22T13:42:45;5.10;97.60
39345;DHT22;25061;51.954;6.996;2023-11-22T13:45:12;5.30;96.50
39345;DHT22;25061;51.954;6.996;2023-11-22T13:47:47;5.20;95.10
39345;DHT22;25061;51.954;6.996;2023-11-22T13:50:16;5.10;93.90
39345;DHT22;25061;51.954;6.996;2023-11-22T13:52:50;5.00;91.00
39345;DHT22;25061;51.954;6.996;2023-11-22T13:55:17;5.10;92.90
39345;DHT22;25061;51.954;6.996;2023-11-22T13:57:48;5.00;93.50
39345;DHT22;25061;51.954;6.996;2023-11-22T14:00:14;4.90;94.10
39345;DHT22;25061;51.954;6.996;2023-11-22T14:02:48;4.90;89.70
39345;DHT22;25061;51.954;6.996;2023-11-22T14:05:14;4.90;93.10
39345;DHT22;25061;51.954;6.996;2023-11-22T14:07:41;5.00;95.10
39345;DHT22;25061;51.954;6.996;2023-11-22T14:10:08;4.90;95.00
39345;DHT22;25061;51.954;6.996;2023-11-22T14:12:35;4.90;94.90
39345;DHT22;25061;51.954;6.996;2023-11-22T14:15:00;4.90;95.90
39345;DHT22;25061;51.954;6.996;2023-11-22T14:17:27;5.00;98.00
39345;DHT22;25061;51.954;6.996;2023-11-22T14:19:52;4.90;98.30
39345;DHT22;25061;51.954;6.996;2023-11-22T14:22:20;4.80;98.30
39345;DHT22;25061;51.954;6.996;2023-11-22T14:24:46;4.80;99.90
39345;DHT22;25061;51.954;6.996;2023-11-22T14:27:12;4.80;98.20
39345;DHT22;25061;51.954;6.996;2023-11-22T14:29:38;4.80;99.90
39345;DHT22;25061;51.954;6.996;2023-11-22T14:32:05;4.80;99.90
39345;DHT22;25061;51.954;6.996;2023-11-22T14:34:32;4.80;99.90
39345;DHT22;25061;51.954;6.996;2023-11-22T14:36:58;4.80;99.90
39345;DHT22;25061;51.954;6.996;2023-11-22T14:39:23;4.80;99.90
39345;DHT22;25061;51.954;6.996;2023-11-22T14:41:49;4.80;99.90
39345;DHT22;25061;51.954;6.996;2023-11-22T14:44:16;4.80;99.90
39345;DHT22;25061;51.954;6.996;2023-11-22T14:46:43;4.70;99.90
39345;DHT22;25061;51.954;6.996;2023-11-22T14:49:09;4.70;99.90
39345;DHT22;25061;51.954;6.996;2023-11-22T14:51:34;4.70;99.90
39345;DHT22;25061;51.954;6.996;2023-11-22T14:54:00;4.70;99.90
39345;DHT22;25061;51.954;6.996;2023-11-22T14:56:26;4.70;99.90
39345;DHT22;25061;51.954;6.996;2023-11-22T14:58:52;4.70;99.90
39345;DHT22;25061;51.954;6.996;2023-11-22T15:01:21;4.70;99.90
39345;DHT22;25061;51.954;6.996;2023-11-22T15:03:52;4.70;99.90
39345;DHT22;25061;51.954;6.996;2023-11-22T15:06:21;4.70;99.90
39345;DHT22;25061;51.954;6.996;2023-11-22T15:08:47;4.70;99.90
39345;DHT22;25061;51.954;6.996;2023-11-22T15:11:17;4.60;99.90
39345;DHT22;25061;51.954;6.996;2023-11-22T15:13:44;4.60;99.90
39345;DHT22;25061;51.954;6.996;2023-11-22T15:16:09;4.70;99.90
39345;DHT22;25061;51.954;6.996;2023-11-22T15:18:40;4.70;99.90
39345;DHT22;25061;51.954;6.996;2023-11-22T15:21:06;4.70;99.90
39345;DHT22;25061;51.954;6.996;2023-11-22T15:23:32;4.60;99.90
39345;DHT22;25061;51.954;6.996;2023-11-22T15:25:59;4.60;99.90
39345;DHT22;25061;51.954;6.996;2023-11-22T15:28:25;4.60;99.90
39345;DHT22;25061;51.954;6.996;2023-11-22T15:30:51;4.60;99.90
39345;DHT22;25061;51.954;6.996;2023-11-22T15:33:25;4.60;99.90
39345;DHT22;25061;51.954;6.996;2023-11-22T15:35:51;4.60;99.90
39345;DHT22;25061;51.954;6.996;2023-11-22T15:38:17;4.60;99.90
39345;DHT22;25061;51.954;6.996;2023-11-22T15:40:43;4.60;99.90
39345;DHT22;25061;51.954;6.996;2023-11-22T15:43:09;4.60;99.90
39345;DHT22;25061;51.954;6.996;2023-11-22T15:45:34;4.60;99.90
39345;DHT22;25061;51.954;6.996;2023-11-22T15:48:05;4.60;99.90
39345;DHT22;25061;51.954;6.996;2023-11-22T15:50:30;4.60;99.90
39345;DHT22;25061;51.954;6.996;2023-11-22T15:52:58;4.60;99.90
39345;DHT22;25061;51.954;6.996;2023-11-22T15:55:23;4.60;99.90
39345;DHT22;25061;51.954;6.996;2023-11-22T15:57:51;4.50;99.90
39345;DHT22;25061;51.954;6.996;2023-11-22T16:00:16;4.60;99.90
39345;DHT22;25061;51.954;6.996;2023-11-22T16:02:42;4.50;99.90
39345;DHT22;25061;51.954;6.996;2023-11-22T16:05:08;4.50;99.90
39345;DHT22;25061;51.954;6.996;2023-11-22T16:07:33;4.50;99.90
39345;DHT22;25061;51.954;6.996;2023-11-22T16:09:59;4.50;99.90
39345;DHT22;25061;51.954;6.996;2023-11-22T16:12:25;4.50;99.90
39345;DHT22;25061;51.954;6.996;2023-11-22T16:14:51;4.50;99.90
39345;DHT22;25061;51.954;6.996;2023-11-22T16:17:17;4.60;99.90
39345;DHT22;25061;51.954;6.996;2023-11-22T16:19:48;4.60;99.90
39345;DHT22;25061;51.954;6.996;2023-11-22T16:22:14;4.60;99.90
39345;DHT22;25061;51.954;6.996;2023-11-22T16:24:41;4.60;99.90
39345;DHT22;25061;51.954;6.996;2023-11-22T16:27:07;4.60;99.90
39345;DHT22;25061;51.954;6.996;2023-11-22T16:29:32;4.60;99.90
39345;DHT22;25061;51.954;6.996;2023-11-22T16:31:58;4.60;99.90
39345;DHT22;25061;51.954;6.996;2023-11-22T16:34:25;4.60;99.90
39345;DHT22;25061;51.954;6.996;2023-11-22T16:36:51;4.60;99.90
39345;DHT22;25061;51.954;6.996;2023-11-22T16:39:17;4.60;99.90
39345;DHT22;25061;51.954;6.996;2023-11-22T16:41:46;4.60;99.90
39345;DHT22;25061;51.954;6.996;2023-11-22T16:44:13;4.60;99.90
39345;DHT22;25061;51.954;6.996;2023-11-22T16:46:39;4.60;99.90
39345;DHT22;25061;51.954;6.996;2023-11-22T16:49:06;4.60;99.90
39345;DHT22;25061;51.954;6.996;2023-11-22T16:51:34;4.60;99.90
39345;DHT22;25061;51.954;6.996;2023-11-22T16:54:00;4.50;99.90
39345;DHT22;25061;51.954;6.996;2023-11-22T16:56:25;4.60;99.90
39345;DHT22;25061;51.954;6.996;2023-11-22T16:58:51;4.60;99.90
39345;DHT22;25061;51.954;6.996;2023-11-22T17:01:17;4.60;99.90
39345;DHT22;25061;51.954;6.996;2023-11-22T17:03:42;4.60;99.90
39345;DHT22;25061;51.954;6.996;2023-11-22T17:06:10;4.60;99.90
39345;DHT22;25061;51.954;6.996;2023-11-22T17:08:36;4.60;99.90
39345;DHT22;25061;51.954;6.996;2023-11-22T17:11:02;4.60;99.90
39345;DHT22;25061;51.954;6.996;2023-11-22T17:13:27;4.60;99.90
39345;DHT22;25061;51.954;6.996;2023-11-22T17:15:53;4.60;99.90
39345;DHT22;25061;51.954;6.996;2023-11-22T17:18:21;4.60;99.90
39345;DHT22;25061;51.954;6.996;2023-11-22T17:20:46;4.60;99.90
39345;DHT22;25061;51.954;6.996;2023-11-22T17:23:12;4.60;99.90
39345;DHT22;25061;51.954;6.996;2023-11-22T17:25:38;4.60;99.90
39345;DHT22;25061;51.954;6.996;2023-11-22T17:28:04;4.60;99.90
39345;DHT22;25061;51.954;6.996;2023-11-22T17:30:29;4.60;99.90
39345;DHT22;25061;51.954;6.996;2023-11-22T17:32:55;4.60;99.90
39345;DHT22;25061;51.954;6.996;2023-11-22T17:35:21;4.60;99.90
39345;DHT22;25061;51.954;6.996;2023-11-22T17:37:47;4.60;99.90
39345;DHT22;25061;51.954;6.996;2023-11-22T17:40:14;4.60;99.90
39345;DHT22;25061;51.954;6.996;2023-11-22T17:42:41;4.60;99.90
39345;DHT22;25061;51.954;6.996;2023-11-22T17:45:07;4.60;99.90
39345;DHT22;25061;51.954;6.996;2023-11-22T17:49:52;5.10;99.90
39345;DHT22;25061;51.954;6.996;2023-11-22T17:52:17;5.20;99.90
39345;DHT22;25061;51.954;6.996;2023-11-22T17:54:43;5.30;99.90
39345;DHT22;25061;51.954;6.996;2023-11-22T17:57:13;5.10;99.90
39345;DHT22;25061;51.954;6.996;2023-11-22T17:59:39;5.10;99.90
39345;DHT22;25061;51.954;6.996;2023-11-22T18:02:06;5.20;99.90
39345;DHT22;25061;51.954;6.996;2023-11-22T18:04:31;5.10;99.90
39345;DHT22;25061;51.954;6.996;2023-11-22T18:06:57;5.10;99.90
39345;DHT22;25061;51.954;6.996;2023-11-22T18:09:24;5.00;99.90
39345;DHT22;25061;51.954;6.996;2023-11-22T18:11:51;5.10;99.90
39345;DHT22;25061;51.954;6.996;2023-11-22T18:14:17;5.20;99.90
39345;DHT22;25061;51.954;6.996;2023-11-22T18:16:44;5.20;99.90
39345;DHT22;25061;51.954;6.996;2023-11-22T18:19:11;5.30;99.90
39345;DHT22;25061;51.954;6.996;2023-11-22T18:21:37;5.20;99.90
39345;DHT22;25061;51.954;6.996;2023-11-22T18:24:03;5.10;99.90
39345;DHT22;25061;51.954;6.996;2023-11-22T18:26:29;5.20;99.90
39345;DHT22;25061;51.954;6.996;2023-11-22T18:28:55;5.10;99.90
39345;DHT22;25061;51.954;6.996;2023-11-22T18:31:20;5.20;99.90
39345;DHT22;25061;51.954;6.996;2023-11-22T18:33:47;5.10;99.90
39345;DHT22;25061;51.954;6.996;2023-11-22T18:36:12;5.10;99.90
39345;DHT22;25061;51.954;6.996;2023-11-22T18:38:39;5.10;99.90
39345;DHT22;25061;51.954;6.996;2023-11-22T18:41:09;5.20;99.90
39345;DHT22;25061;51.954;6.996;2023-11-22T18:43:37;5.10;99.90
39345;DHT22;25061;51.954;6.996;2023-11-22T18:46:04;5.10;99.90
39345;DHT22;25061;51.954;6.996;2023-11-22T18:48:30;5.10;99.90
39345;DHT22;25061;51.954;6.996;2023-11-22T18:50:56;5.30;99.90
39345;DHT22;25061;51.954;6.996;2023-11-22T18:53:22;5.20;99.90
39345;DHT22;25061;51.954;6.996;2023-11-22T18:55:48;5.20;99.90
39345;DHT22;25061;51.954;6.996;2023-11-22T18:58:15;5.20;99.90
39345;DHT22;25061;51.954;6.996;2023-11-22T19:00:40;5.20;99.90
39345;DHT22;25061;51.954;6.996;2023-11-22T19:03:06;5.20;99.90
39345;DHT22;25061;51.954;6.996;2023-11-22T19:05:32;5.20;99.90
39345;DHT22;25061;51.954;6.996;2023-11-22T19:07:58;5.10;99.90
39345;DHT22;25061;51.954;6.996;2023-11-22T19:10:24;5.20;99.90
39345;DHT22;25061;51.954;6.996;2023-11-22T19:12:51;5.30;99.90
39345;DHT22;25061;51.954;6.996;2023-11-22T19:15:17;5.10;99.90
39345;DHT22;25061;51.954;6.996;2023-11-22T19:17:43;5.20;99.90
39345;DHT22;25061;51.954;6.996;2023-11-22T19:20:09;5.30;99.90
39345;DHT22;25061;51.954;6.996;2023-11-22T19:22:38;5.30;99.90
39345;DHT22;25061;51.954;6.996;2023-11-22T19:25:06;5.40;99.90
39345;DHT22;25061;51.954;6.996;2023-11-22T19:27:32;5.50;99.90
39345;DHT22;25061;51.954;6.996;2023-11-22T19:29:58;5.40;99.90
39345;DHT22;25061;51.954;6.996;2023-11-22T19:32:29;5.40;99.90
39345;DHT22;25061;51.954;6.996;2023-11-22T19:34:55;5.40;99.90
39345;DHT22;25061;51.954;6.996;2023-11-22T19:37:21;5.40;99.90
39345;DHT22;25061;51.954;6.996;2023-11-22T19:39:46;5.30;99.90
39345;DHT22;25061;51.954;6.996;2023-11-22T19:42:13;5.30;99.90
39345;DHT22;25061;51.954;6.996;2023-11-22T19:44:39;5.40;99.90
39345;DHT22;25061;51.954;6.996;2023-11-22T19:47:05;5.40;99.90
39345;DHT22;25061;51.954;6.996;2023-11-22T19:49:30;5.30;99.90
39345;DHT22;25061;51.954;6.996;2023-11-22T19:51:56;5.30;99.90
39345;DHT22;25061;51.954;6.996;2023-11-22T19:54:22;5.20;99.90
39345;DHT22;25061;51.954;6.996;2023-11-22T19:56:48;5.20;99.90
39345;DHT22;25061;51.954;6.996;2023-11-22T19:59:14;5.20;99.90
39345;DHT22;25061;51.954;6.996;2023-11-22T20:01:42;5.30;99.90
39345;DHT22;25061;51.954;6.996;2023-11-22T20:04:08;5.30;99.90
39345;DHT22;25061;51.954;6.996;2023-11-22T20:06:34;5.30;99.90
39345;DHT22;25061;51.954;6.996;2023-11-22T20:08:59;5.30;99.90
39345;DHT22;25061;51.954;6.996;2023-11-22T20:11:25;5.30;99.90
39345;DHT22;25061;51.954;6.996;2023-11-22T20:13:51;5.30;99.90
39345;DHT22;25061;51.954;6.996;2023-11-22T20:16:16;5.40;99.90
39345;DHT22;25061;51.954;6.996;2023-11-22T20:18:42;5.20;99.90
39345;DHT22;25061;51.954;6.996;2023-11-22T20:21:11;5.20;99.90
39345;DHT22;25061;51.954;6.996;2023-11-22T20:23:38;5.20;99.90
39345;DHT22;25061;51.954;6.996;2023-11-22T20:26:03;5.40;99.90
39345;DHT22;25061;51.954;6.996;2023-11-22T20:28:29;5.50;99.90
39345;DHT22;25061;51.954;6.996;2023-11-22T20:30:55;5.50;99.90
39345;DHT22;25061;51.954;6.996;2023-11-22T20:33:21;5.50;99.90
39345;DHT22;25061;51.954;6.996;2023-11-22T20:35:46;5.60;99.90
39345;DHT22;25061;51.954;6.996;2023-11-22T20:38:12;5.50;99.90
39345;DHT22;25061;51.954;6.996;2023-11-22T20:40:37;5.50;99.90
39345;DHT22;25061;51.954;6.996;2023-11-22T20:43:03;5.50;99.90
39345;DHT22;25061;51.954;6.996;2023-11-22T20:45:29;5.50;99.90
39345;DHT22;25061;51.954;6.996;2023-11-22T20:47:54;5.60;99.90
39345;DHT22;25061;51.954;6.996;2023-11-22T20:50:20;5.50;99.90
39345;DHT22;25061;51.954;6.996;2023-11-22T20:52:45;5.60;99.90
39345;DHT22;25061;51.954;6.996;2023-11-22T20:55:11;5.60;99.90
39345;DHT22;25061;51.954;6.996;2023-11-22T20:57:37;5.50;99.90
39345;DHT22;25061;51.954;6.996;2023-11-22T21:00:05;5.60;99.90
39345;DHT22;25061;51.954;6.996;2023-11-22T21:02:31;5.60;99.90
39345;DHT22;25061;51.954;6.996;2023-11-22T21:04:57;5.60;99.90
39345;DHT22;25061;51.954;6.996;2023-11-22T21:07:23;5.60;99.90
39345;DHT22;25061;51.954;6.996;2023-11-22T21:09:48;5.60;99.90
39345;DHT22;25061;51.954;6.996;2023-11-22T21:12:14;5.60;99.90
39345;DHT22;25061;51.954;6.996;2023-11-22T21:14:40;5.60;99.90
39345;DHT22;25061;51.954;6.996;2023-11-22T21:17:05;5.70;99.90
39345;DHT22;25061;51.954;6.996;2023-11-22T21:19:32;5.60;99.90